Real Ops is coming to Winnipeg! Details HERE.

We Are Winnipeg.

Screenshot by Todd Blanchette

Come explore the heart of Canada.  


  Upcoming Events

REAL OPS - Winnipeg  September 29, 2021 23:00z
Snow Shuttle  October 8, 2021 21:00z

  Top Controllers this Month

Tavis Harrison 1444863
40:43

Benjamin Cook 1214000
40:08

Ryan Miltenberger 1350654
33:06

Zachary Collison 1431902
25:01

James Norris 1405159
18:53

  Online Controllers

No controllers online.

  Weather

CYWG - Winnipeg / James Armstrong Richardson International Airport   VFR
CYWG 241400Z 27011KT 15SM SCT060 SCT250 08/M01 A2993 RMK SC3CI1 SLP143

CYXE - Saskatoon John G. Diefenbaker International Airport   VFR
CYXE 241400Z 25008KT 15SM FEW240 02/M04 A3013 RMK CI2 SLP227

CYQT - Thunder Bay Airport   VFR
CYQT 241434Z 25004KT 15SM -SHRA SCT003 BKN050 BKN120 09/09 A2973 RMK ST4SC2AC1 CVCTV CLD EMBD VIS W 4 BR SLP076

CYQR - Regina International Airport   VFR
CYQR 241400Z 28013KT 15SM FEW120 FEW220 03/M04 A3013 RMK AC1CI1 AC TR CI TR SLP223

CYMJ - Moose Jaw Air Vice Marshal C. M. McEwen Airport   VFR
CYMJ 241400Z 27012KT 15SM FEW160 05/M04 A3016 RMK AC2 SLP229

CYPG - Portage-la-Prairie / Southport Airport   VFR
CYPG 241400Z 26011G17KT 15SM FEW080 BKN250 08/M01 A2997 RMK AC2CI5 SLP152